createdAt,value
2022-08-22T00:03:07.733Z,17.52
2022-08-22T00:03:07.955Z,16.86
2022-08-22T00:14:01.922Z,16.66
2022-08-22T00:21:45.406Z,16.59
2022-08-22T00:29:26.636Z,16.56
2022-08-22T00:37:07.952Z,16.52
2022-08-22T00:45:05.465Z,16.48
2022-08-22T00:53:02.783Z,16.42
2022-08-22T01:00:44.783Z,16.33
2022-08-22T01:08:34.480Z,16.27
2022-08-22T01:16:30.218Z,16.21
2022-08-22T01:24:18.554Z,16.12
2022-08-22T01:32:44.653Z,16.06
2022-08-22T01:40:58.923Z,16.03
2022-08-22T01:48:40.439Z,15.93
2022-08-22T01:56:19.530Z,15.83
2022-08-22T02:04:02.896Z,15.82
2022-08-22T02:11:45.620Z,15.80
2022-08-22T02:19:30.534Z,15.79
2022-08-22T02:27:16.959Z,15.76
2022-08-22T02:35:03.460Z,15.74
2022-08-22T02:42:44.304Z,15.69
2022-08-22T02:50:24.636Z,15.64
2022-08-22T02:58:07.212Z,15.58
2022-08-22T03:05:52.570Z,15.52
2022-08-22T03:13:41.406Z,15.48
2022-08-22T03:21:20.000Z,15.48
2022-08-22T03:29:03.022Z,15.48
2022-08-22T03:36:37.903Z,15.37
2022-08-22T03:44:42.398Z,15.35
2022-08-22T03:53:06.020Z,15.37
2022-08-22T04:09:24.041Z,15.27
2022-08-22T04:17:21.560Z,15.25
2022-08-22T04:25:07.575Z,15.26
2022-08-22T04:32:46.496Z,15.30
2022-08-22T04:40:26.850Z,15.29
2022-08-22T04:48:07.892Z,15.31
2022-08-22T04:55:57.152Z,15.32
2022-08-22T05:03:34.125Z,15.38
2022-08-22T05:11:11.798Z,15.44
2022-08-22T05:18:48.934Z,15.56
2022-08-22T05:26:25.566Z,15.59
2022-08-22T05:34:05.342Z,15.51
2022-08-22T05:41:42.413Z,15.63
2022-08-22T05:49:20.781Z,15.79
2022-08-22T05:57:07.432Z,15.91
2022-08-22T06:04:53.226Z,16.05
2022-08-22T06:12:35.352Z,16.20
2022-08-22T06:20:11.580Z,16.38
2022-08-22T06:27:50.004Z,16.54
2022-08-22T06:35:28.878Z,16.70
2022-08-22T06:43:06.304Z,16.80
2022-08-22T06:50:42.961Z,16.96
2022-08-22T06:58:21.910Z,17.08
2022-08-22T07:05:58.011Z,17.26
2022-08-22T07:13:35.926Z,17.43
2022-08-22T07:21:09.898Z,17.54
2022-08-22T07:28:51.574Z,17.73
2022-08-22T07:36:42.921Z,17.88
2022-08-22T07:44:21.363Z,18.07
2022-08-22T07:51:58.915Z,18.32
2022-08-22T07:59:36.652Z,18.50
2022-08-22T08:07:14.807Z,18.79
2022-08-22T08:14:55.746Z,19.05
2022-08-22T08:22:30.482Z,19.36
2022-08-22T08:30:15.291Z,19.68
2022-08-22T08:37:53.272Z,19.95
2022-08-22T08:45:59.042Z,20.27
2022-08-22T08:54:05.303Z,20.51
2022-08-22T09:01:59.969Z,21.21
2022-08-22T09:09:52.309Z,21.43
2022-08-22T09:17:45.015Z,21.74
2022-08-22T09:25:28.755Z,22.04
2022-08-22T09:33:18.986Z,22.32
2022-08-22T09:41:05.718Z,22.28
2022-08-22T09:48:49.321Z,22.50
2022-08-22T09:56:33.607Z,22.64
2022-08-22T10:04:47.523Z,22.64
2022-08-22T10:12:35.124Z,22.78
2022-08-22T10:20:20.953Z,22.91
2022-08-22T10:28:10.503Z,22.90
2022-08-22T10:35:59.927Z,22.96
2022-08-22T10:43:49.392Z,23.21
2022-08-22T10:51:44.635Z,23.36
2022-08-22T10:59:33.965Z,23.42
2022-08-22T11:07:21.396Z,23.32
2022-08-22T11:15:08.201Z,23.35
2022-08-22T11:22:56.364Z,23.38
2022-08-22T11:30:36.477Z,23.28
2022-08-22T11:38:30.700Z,23.15
2022-08-22T11:46:19.801Z,23.19
2022-08-22T11:54:04.215Z,23.29
2022-08-22T12:01:43.610Z,23.37
2022-08-22T12:09:27.634Z,23.48
2022-08-22T12:17:51.072Z,23.46
2022-08-22T12:25:25.794Z,23.52
2022-08-22T12:33:36.275Z,23.60
2022-08-22T12:41:38.130Z,23.67
2022-08-22T12:49:29.680Z,23.95
2022-08-22T12:57:23.678Z,23.99
2022-08-22T13:05:00.823Z,24.08
2022-08-22T13:12:45.044Z,24.05
2022-08-22T13:20:28.216Z,23.99
2022-08-22T13:28:06.085Z,23.89
2022-08-22T13:35:51.887Z,23.84
2022-08-22T13:43:31.764Z,23.87
2022-08-22T13:51:10.541Z,23.90
2022-08-22T13:58:49.513Z,23.80
2022-08-22T14:06:35.252Z,23.88
2022-08-22T14:14:14.045Z,23.78
2022-08-22T14:21:53.639Z,23.84
2022-08-22T14:29:40.469Z,23.89
2022-08-22T14:37:19.304Z,23.82
2022-08-22T14:45:06.406Z,23.70
2022-08-22T14:52:43.635Z,23.65
2022-08-22T15:00:30.819Z,23.50
2022-08-22T15:08:05.315Z,23.41
2022-08-22T15:15:53.519Z,23.45
2022-08-22T15:23:29.441Z,23.50
2022-08-22T15:31:08.478Z,23.56
2022-08-22T15:38:45.819Z,23.61
2022-08-22T15:46:31.923Z,23.65
2022-08-22T15:54:16.438Z,23.52
2022-08-22T16:02:05.042Z,23.44
2022-08-22T16:09:44.493Z,23.39
2022-08-22T16:17:47.176Z,23.28
2022-08-22T16:26:00.666Z,23.21
2022-08-22T16:33:39.857Z,23.16
2022-08-22T16:41:35.862Z,23.07
2022-08-22T16:49:12.565Z,22.95
2022-08-22T16:57:04.081Z,22.86
2022-08-22T17:04:54.273Z,22.71
2022-08-22T17:12:40.443Z,22.63
2022-08-22T17:20:29.634Z,22.59
2022-08-22T17:28:19.302Z,22.48
2022-08-22T17:36:06.013Z,22.40
2022-08-22T17:43:56.403Z,22.33
2022-08-22T17:51:38.973Z,22.18
2022-08-22T17:59:21.139Z,22.08
2022-08-22T18:07:06.719Z,21.93
2022-08-22T18:14:50.271Z,21.78
2022-08-22T18:22:30.316Z,21.61
2022-08-22T18:30:15.538Z,21.52
2022-08-22T18:37:58.230Z,21.45
2022-08-22T18:46:04.063Z,21.36
2022-08-22T18:53:45.756Z,21.30
2022-08-22T19:01:42.271Z,21.25
2022-08-22T19:09:46.922Z,21.16
2022-08-22T19:17:37.325Z,21.08
2022-08-22T19:25:18.687Z,20.88
2022-08-22T19:33:03.079Z,20.80
2022-08-22T19:40:53.767Z,20.75
2022-08-22T19:48:30.370Z,20.62
2022-08-22T19:56:19.579Z,20.54
2022-08-22T20:03:57.913Z,20.47
2022-08-22T20:11:45.041Z,20.50
2022-08-22T20:19:21.520Z,20.42
2022-08-22T20:27:15.294Z,20.33
2022-08-22T20:34:54.828Z,20.24
2022-08-22T20:42:34.861Z,20.18
2022-08-22T20:50:11.998Z,20.17
2022-08-22T20:57:51.363Z,20.10
2022-08-22T21:05:27.062Z,20.03
2022-08-22T21:13:09.564Z,20.01
2022-08-22T21:20:43.377Z,20.01
2022-08-22T21:28:33.166Z,20.00
2022-08-22T21:36:11.984Z,20.00
2022-08-22T21:43:48.210Z,20.00
2022-08-22T21:51:41.047Z,19.94
2022-08-22T21:59:26.143Z,19.89
2022-08-22T22:07:19.889Z,19.89
2022-08-22T22:14:55.169Z,19.83
2022-08-22T22:22:28.970Z,19.79
2022-08-22T22:30:04.734Z,19.66
2022-08-22T22:37:41.553Z,19.61
2022-08-22T22:45:17.214Z,19.63
2022-08-22T22:52:51.044Z,19.67
2022-08-22T23:00:31.639Z,19.68
2022-08-22T23:08:06.143Z,19.62
2022-08-22T23:15:41.410Z,19.58
2022-08-22T23:23:15.311Z,19.60
2022-08-22T23:30:50.757Z,19.49
2022-08-22T23:38:24.445Z,19.47
2022-08-22T23:45:59.595Z,19.49
2022-08-22T23:53:34.891Z,19.45
